sensor_id;sensor_type;location;lat;lon;timestamp;P1;P2;P0
57798;PMS7003;43626;53.866;30.298;2023-03-14T00:04:00;18;15.8;9
57798;PMS7003;43626;53.866;30.298;2023-03-14T00:08:39;20;14.8;9.4
57798;PMS7003;43626;53.866;30.298;2023-03-14T00:14:16;20.4;16.2;10.2
57798;PMS7003;43626;53.866;30.298;2023-03-14T00:18:54;16.8;15;10.4
57798;PMS7003;43626;53.866;30.298;2023-03-14T00:23:42;19.8;16.5;10.5
57798;PMS7003;43626;53.866;30.298;2023-03-14T00:28:58;19.2;16.6;10.6
57798;PMS7003;43626;53.866;30.298;2023-03-14T00:34:12;19;16.8;10
57798;PMS7003;43626;53.866;30.298;2023-03-14T00:38:47;19.6;15.8;9.6
57798;PMS7003;43626;53.866;30.298;2023-03-14T00:43:59;18.6;15.4;9
57798;PMS7003;43626;53.866;30.298;2023-03-14T00:49:06;17;15;9.6
57798;PMS7003;43626;53.866;30.298;2023-03-14T00:54:00;17.6;16;9.4
57798;PMS7003;43626;53.866;30.298;2023-03-14T00:58:53;19.6;16.4;9.6
57798;PMS7003;43626;53.866;30.298;2023-03-14T01:03:42;20.4;17.6;10.2
57798;PMS7003;43626;53.866;30.298;2023-03-14T01:09:14;15.8;14.6;9.4
57798;PMS7003;43626;53.866;30.298;2023-03-14T01:14:14;16.4;14.4;8.6
57798;PMS7003;43626;53.866;30.298;2023-03-14T01:18:43;18;15.2;9.2
57798;PMS7003;43626;53.866;30.298;2023-03-14T01:23:51;19.5;16.3;10.5
57798;PMS7003;43626;53.866;30.298;2023-03-14T01:28:55;17.2;13.6;8.6
57798;PMS7003;43626;53.866;30.298;2023-03-14T01:33:43;18.2;15.2;9.2
57798;PMS7003;43626;53.866;30.298;2023-03-14T01:38:33;17.2;14.8;9.4
57798;PMS7003;43626;53.866;30.298;2023-03-14T01:44:14;16.8;14.2;7.8
57798;PMS7003;43626;53.866;30.298;2023-03-14T01:48:43;16.8;15.2;9.4
57798;PMS7003;43626;53.866;30.298;2023-03-14T01:53:44;16.6;14.8;9.4
57798;PMS7003;43626;53.866;30.298;2023-03-14T01:59:14;17.6;16.6;10
57798;PMS7003;43626;53.866;30.298;2023-03-14T02:03:34;16.2;14.8;9
57798;PMS7003;43626;53.866;30.298;2023-03-14T02:08:33;17.8;15.2;9
57798;PMS7003;43626;53.866;30.298;2023-03-14T02:13:55;19.6;16.4;10
57798;PMS7003;43626;53.866;30.298;2023-03-14T02:19:15;18;14.6;9
57798;PMS7003;43626;53.866;30.298;2023-03-14T02:23:47;18.3;15.5;9
57798;PMS7003;43626;53.866;30.298;2023-03-14T02:28:54;16.8;14.6;9
57798;PMS7003;43626;53.866;30.298;2023-03-14T02:33:32;16.2;14.4;9.2
57798;PMS7003;43626;53.866;30.298;2023-03-14T02:39:03;16.6;14.6;9.4
57798;PMS7003;43626;53.866;30.298;2023-03-14T02:43:33;16.2;14.2;9
57798;PMS7003;43626;53.866;30.298;2023-03-14T02:48:47;14.4;13.8;8.6
57798;PMS7003;43626;53.866;30.298;2023-03-14T02:54:00;17;13.2;8.4
57798;PMS7003;43626;53.866;30.298;2023-03-14T02:58:42;17.8;14.6;9
57798;PMS7003;43626;53.866;30.298;2023-03-14T03:04:14;19.2;17;9.8
57798;PMS7003;43626;53.866;30.298;2023-03-14T03:09:00;19.4;16.4;9.2
57798;PMS7003;43626;53.866;30.298;2023-03-14T03:13:33;18.6;16;9.4
57798;PMS7003;43626;53.866;30.298;2023-03-14T03:19:14;16.6;14.4;8.2
57798;PMS7003;43626;53.866;30.298;2023-03-14T03:23:54;16.3;14;8.3
57798;PMS7003;43626;53.866;30.298;2023-03-14T03:28:36;17;15.8;9.6
57798;PMS7003;43626;53.866;30.298;2023-03-14T03:34:00;16.2;15;9.2
57798;PMS7003;43626;53.866;30.298;2023-03-14T03:39:15;17;15.2;9
57798;PMS7003;43626;53.866;30.298;2023-03-14T03:43:33;16.4;15;9.2
57798;PMS7003;43626;53.866;30.298;2023-03-14T03:49:14;18.6;15;8.8
57798;PMS7003;43626;53.866;30.298;2023-03-14T03:54:14;16.6;14.8;9
57798;PMS7003;43626;53.866;30.298;2023-03-14T03:59:01;18.8;16.2;10.4
57798;PMS7003;43626;53.866;30.298;2023-03-14T04:03:53;20.6;16;9.6
57798;PMS7003;43626;53.866;30.298;2023-03-14T04:09:01;18;15;9.2
57798;PMS7003;43626;53.866;30.298;2023-03-14T04:14:01;21;18.2;11.2
57798;PMS7003;43626;53.866;30.298;2023-03-14T04:19:09;18.6;16.6;9.6
57798;PMS7003;43626;53.866;30.298;2023-03-14T04:23:33;18.8;17.3;10.5
57798;PMS7003;43626;53.866;30.298;2023-03-14T04:29:15;22.2;18.6;10.4
57798;PMS7003;43626;53.866;30.298;2023-03-14T04:33:55;21.8;18.6;11
57798;PMS7003;43626;53.866;30.298;2023-03-14T04:38:33;21.2;17.6;10
57798;PMS7003;43626;53.866;30.298;2023-03-14T04:44:01;21.8;18;11.2
57798;PMS7003;43626;53.866;30.298;2023-03-14T04:49:15;19.8;17.4;11
57798;PMS7003;43626;53.866;30.298;2023-03-14T04:53:43;22;18;10.6
57798;PMS7003;43626;53.866;30.298;2023-03-14T04:58:53;20;17.2;10.4
57798;PMS7003;43626;53.866;30.298;2023-03-14T05:04:13;21;19.4;11.8
57798;PMS7003;43626;53.866;30.298;2023-03-14T05:08:33;22.4;18.8;11.4
57798;PMS7003;43626;53.866;30.298;2023-03-14T05:13:33;22.6;19;11.6
57798;PMS7003;43626;53.866;30.298;2023-03-14T05:18:55;24;19;12.2
57798;PMS7003;43626;53.866;30.298;2023-03-14T05:24:15;28.8;21.4;13
57798;PMS7003;43626;53.866;30.298;2023-03-14T05:28:57;26.5;21.8;13.8
57798;PMS7003;43626;53.866;30.298;2023-03-14T05:33:53;29.4;22.2;14.2
57798;PMS7003;43626;53.866;30.298;2023-03-14T05:38:33;27.6;21.8;12.4
57798;PMS7003;43626;53.866;30.298;2023-03-14T05:43:59;26.8;22.6;14.6
57798;PMS7003;43626;53.866;30.298;2023-03-14T05:48:43;25.8;22.6;13.8
57798;PMS7003;43626;53.866;30.298;2023-03-14T05:53:33;25.2;21.4;13.2
57798;PMS7003;43626;53.866;30.298;2023-03-14T05:58:33;26.6;22.6;15.4
57798;PMS7003;43626;53.866;30.298;2023-03-14T06:03:53;22.4;20;12.2
57798;PMS7003;43626;53.866;30.298;2023-03-14T06:09:15;24.6;21.2;12.8
57798;PMS7003;43626;53.866;30.298;2023-03-14T06:14:01;22.8;19.4;11.8
57798;PMS7003;43626;53.866;30.298;2023-03-14T06:18:33;27.2;21.4;13
57798;PMS7003;43626;53.866;30.298;2023-03-14T06:24:15;21;17.6;11.4
57798;PMS7003;43626;53.866;30.298;2023-03-14T06:28:55;20.8;18;10.5
57798;PMS7003;43626;53.866;30.298;2023-03-14T06:33:43;23.2;19;11.8
57798;PMS7003;43626;53.866;30.298;2023-03-14T06:38:59;22;18.4;11.2
57798;PMS7003;43626;53.866;30.298;2023-03-14T06:44:15;20.6;18.4;11.2
57798;PMS7003;43626;53.866;30.298;2023-03-14T06:48:55;24.2;17.8;11
57798;PMS7003;43626;53.866;30.298;2023-03-14T06:54:15;22.8;19.6;11.8
57798;PMS7003;43626;53.866;30.298;2023-03-14T06:59:13;24.6;20.2;11.8
57798;PMS7003;43626;53.866;30.298;2023-03-14T07:03:59;25.8;22.8;12.8
57798;PMS7003;43626;53.866;30.298;2023-03-14T07:09:09;24.4;20;11.2
57798;PMS7003;43626;53.866;30.298;2023-03-14T07:14:01;23.4;20.2;12
57798;PMS7003;43626;53.866;30.298;2023-03-14T07:19:01;25;21.2;12.6
57798;PMS7003;43626;53.866;30.298;2023-03-14T07:24:09;25.6;22;12.2
57798;PMS7003;43626;53.866;30.298;2023-03-14T07:28:33;22.3;19.8;12.8
57798;PMS7003;43626;53.866;30.298;2023-03-14T07:34:15;21.6;19.2;11.4
57798;PMS7003;43626;53.866;30.298;2023-03-14T07:39:01;26.6;20.6;12.6
57798;PMS7003;43626;53.866;30.298;2023-03-14T07:43:55;24.2;21.6;12.6
57798;PMS7003;43626;53.866;30.298;2023-03-14T07:48:47;27.2;22.2;12.8
57798;PMS7003;43626;53.866;30.298;2023-03-14T07:54:07;25.6;22;12
57798;PMS7003;43626;53.866;30.298;2023-03-14T07:58:55;22.4;19.4;11.2
57798;PMS7003;43626;53.866;30.298;2023-03-14T08:03:39;24.8;21.6;13
57798;PMS7003;43626;53.866;30.298;2023-03-14T08:08:59;21.4;19;11.8
57798;PMS7003;43626;53.866;30.298;2023-03-14T08:13:33;22.4;19.2;12
57798;PMS7003;43626;53.866;30.298;2023-03-14T08:18:43;22.2;17.8;11.2
57798;PMS7003;43626;53.866;30.298;2023-03-14T08:23:33;21.6;18.2;11.2
57798;PMS7003;43626;53.866;30.298;2023-03-14T08:29:13;24.3;18.8;12.3
57798;PMS7003;43626;53.866;30.298;2023-03-14T08:34:05;24.6;19.6;11.8
57798;PMS7003;43626;53.866;30.298;2023-03-14T08:38:33;21.2;18.4;12.2
57798;PMS7003;43626;53.866;30.298;2023-03-14T08:43:33;26;20.2;13
57798;PMS7003;43626;53.866;30.298;2023-03-14T08:48:57;24.8;18.8;12.2
57798;PMS7003;43626;53.866;30.298;2023-03-14T08:53:41;23.2;20;12.2
57798;PMS7003;43626;53.866;30.298;2023-03-14T08:58:43;21.2;20;12.6
57798;PMS7003;43626;53.866;30.298;2023-03-14T09:03:45;21.6;18.8;12
57798;PMS7003;43626;53.866;30.298;2023-03-14T09:08:33;21;17.2;11.2
57798;PMS7003;43626;53.866;30.298;2023-03-14T09:14:15;19.6;17;10.4
57798;PMS7003;43626;53.866;30.298;2023-03-14T09:19:01;20.2;16.4;10.2
57798;PMS7003;43626;53.866;30.298;2023-03-14T09:23:43;18.4;15.4;10
57798;PMS7003;43626;53.866;30.298;2023-03-14T09:29:15;19.5;16.5;10.5
57798;PMS7003;43626;53.866;30.298;2023-03-14T09:33:43;20;16.2;10.6
57798;PMS7003;43626;53.866;30.298;2023-03-14T09:39:15;18.4;17;11.2
57798;PMS7003;43626;53.866;30.298;2023-03-14T09:44:03;19.2;17.4;10.8
57798;PMS7003;43626;53.866;30.298;2023-03-14T09:49:16;19.8;17;11.8
57798;PMS7003;43626;53.866;30.298;2023-03-14T09:53:55;20;16.8;11.4
57798;PMS7003;43626;53.866;30.298;2023-03-14T09:58:58;18.8;17;11.2
57798;PMS7003;43626;53.866;30.298;2023-03-14T10:04:15;18.4;16.8;10.2
57798;PMS7003;43626;53.866;30.298;2023-03-14T10:08:47;19.4;17.6;11.2
57798;PMS7003;43626;53.866;30.298;2023-03-14T10:14:03;20.6;16.4;11
57798;PMS7003;43626;53.866;30.298;2023-03-14T10:19:02;18;15.8;10
57798;PMS7003;43626;53.866;30.298;2023-03-14T10:23:35;21.8;18.8;11
57798;PMS7003;43626;53.866;30.298;2023-03-14T10:29:10;20.8;17.8;10.8
57798;PMS7003;43626;53.866;30.298;2023-03-14T10:33:57;22.5;19.5;11.5
57798;PMS7003;43626;53.866;30.298;2023-03-14T10:39:21;19.6;16.6;11
57798;PMS7003;43626;53.866;30.298;2023-03-14T10:44:01;18.8;17;10.6
57798;PMS7003;43626;53.866;30.298;2023-03-14T10:48:33;17.6;16;10.2
57798;PMS7003;43626;53.866;30.298;2023-03-14T10:53:47;18.6;15.6;11
57798;PMS7003;43626;53.866;30.298;2023-03-14T10:58:37;17.8;16;10
57798;PMS7003;43626;53.866;30.298;2023-03-14T11:03:33;17.2;14.6;8.6
57798;PMS7003;43626;53.866;30.298;2023-03-14T11:09:02;15;14.6;9.6
57798;PMS7003;43626;53.866;30.298;2023-03-14T11:14:04;16.8;12.4;8.4
57798;PMS7003;43626;53.866;30.298;2023-03-14T11:18:48;17.8;14.8;9.6
57798;PMS7003;43626;53.866;30.298;2023-03-14T11:24:19;18;15;9.6
57798;PMS7003;43626;53.866;30.298;2023-03-14T11:28:54;18.4;16.6;10.8
57798;PMS7003;43626;53.866;30.298;2023-03-14T11:33:35;17.5;15;10.5
57798;PMS7003;43626;53.866;30.298;2023-03-14T11:39:16;16.8;14.8;10.2
57798;PMS7003;43626;53.866;30.298;2023-03-14T11:44:17;18;16.2;10.6
57798;PMS7003;43626;53.866;30.298;2023-03-14T11:48:35;19.2;16.6;11
57798;PMS7003;43626;53.866;30.298;2023-03-14T11:54:12;18.4;16.2;10
57798;PMS7003;43626;53.866;30.298;2023-03-14T11:59:10;19.2;16.2;10.8
57798;PMS7003;43626;53.866;30.298;2023-03-14T12:03:51;20.8;17.8;12.2
57798;PMS7003;43626;53.866;30.298;2023-03-14T12:08:55;21.2;17.2;11.4
57798;PMS7003;43626;53.866;30.298;2023-03-14T12:13:33;19.4;17.4;11
57798;PMS7003;43626;53.866;30.298;2023-03-14T12:24:17;17.8;15.6;10.2
57798;PMS7003;43626;53.866;30.298;2023-03-14T12:28:33;20.8;17.2;11.2
57798;PMS7003;43626;53.866;30.298;2023-03-14T12:34:31;21.8;18.5;11.5
57798;PMS7003;43626;53.866;30.298;2023-03-14T12:38:56;20.2;17.4;11
57798;PMS7003;43626;53.866;30.298;2023-03-14T12:43:33;18.2;15.8;9.8
57798;PMS7003;43626;53.866;30.298;2023-03-14T12:49:03;19.8;16.2;9.8
57798;PMS7003;43626;53.866;30.298;2023-03-14T12:54:23;16.2;15.2;9.6
57798;PMS7003;43626;53.866;30.298;2023-03-14T12:59:28;15.8;15.2;9.4
57798;PMS7003;43626;53.866;30.298;2023-03-14T13:04:11;19;15.4;10
57798;PMS7003;43626;53.866;30.298;2023-03-14T13:09:57;19;16.4;10.2
57798;PMS7003;43626;53.866;30.298;2023-03-14T13:14:01;16.2;14.2;8.6
57798;PMS7003;43626;53.866;30.298;2023-03-14T13:18:58;15.6;14;9
57798;PMS7003;43626;53.866;30.298;2023-03-14T13:24:02;14.2;11.8;7.8
57798;PMS7003;43626;53.866;30.298;2023-03-14T13:29:08;13.8;11.4;7.6
57798;PMS7003;43626;53.866;30.298;2023-03-14T13:34:09;14.3;12.5;7.8
57798;PMS7003;43626;53.866;30.298;2023-03-14T13:38:34;14.4;12.2;8.4
57798;PMS7003;43626;53.866;30.298;2023-03-14T13:44:16;12.2;11.2;7.8
57798;PMS7003;43626;53.866;30.298;2023-03-14T13:49:02;13.8;12.2;8.2
57798;PMS7003;43626;53.866;30.298;2023-03-14T13:53:34;16.2;14.6;9.2
57798;PMS7003;43626;53.866;30.298;2023-03-14T13:58:43;15.8;14.4;9.4
57798;PMS7003;43626;53.866;30.298;2023-03-14T14:04:07;17.4;14.8;9
57798;PMS7003;43626;53.866;30.298;2023-03-14T14:08:55;16.2;14.8;9
57798;PMS7003;43626;53.866;30.298;2023-03-14T14:13:51;15.4;13.4;9.6
57798;PMS7003;43626;53.866;30.298;2023-03-14T14:19:03;19.6;17;11
57798;PMS7003;43626;53.866;30.298;2023-03-14T14:23:43;17.6;16.2;10.8
57798;PMS7003;43626;53.866;30.298;2023-03-14T14:29:21;16.2;13.8;10
57798;PMS7003;43626;53.866;30.298;2023-03-14T14:33:57;15.5;15;9
57798;PMS7003;43626;53.866;30.298;2023-03-14T14:38:49;19.4;16;10.4
57798;PMS7003;43626;53.866;30.298;2023-03-14T14:44:10;19.6;15.8;8.8
57798;PMS7003;43626;53.866;30.298;2023-03-14T14:49:17;16;14.2;9
57798;PMS7003;43626;53.866;30.298;2023-03-14T14:53:47;14.4;12.8;8.8
57798;PMS7003;43626;53.866;30.298;2023-03-14T14:58:59;13.2;12.4;8.2
57798;PMS7003;43626;53.866;30.298;2023-03-14T15:03:57;15.2;12.6;8.4
57798;PMS7003;43626;53.866;30.298;2023-03-14T15:09:04;16.4;14.2;9.8
57798;PMS7003;43626;53.866;30.298;2023-03-14T15:13:55;16;13.8;10
57798;PMS7003;43626;53.866;30.298;2023-03-14T15:18:33;17;15.2;9.6
57798;PMS7003;43626;53.866;30.298;2023-03-14T15:24:17;17.7;16.3;10.5
57798;PMS7003;43626;53.866;30.298;2023-03-14T15:29:17;20.2;16.6;11.6
57798;PMS7003;43626;53.866;30.298;2023-03-14T15:33:33;22;17.5;11.3
57798;PMS7003;43626;53.866;30.298;2023-03-14T15:39:15;20.6;18;12
57798;PMS7003;43626;53.866;30.298;2023-03-14T15:44:03;18;16;10.8
57798;PMS7003;43626;53.866;30.298;2023-03-14T15:48:43;20.2;17.2;11.4
57798;PMS7003;43626;53.866;30.298;2023-03-14T15:53:47;19;17.4;11.8
57798;PMS7003;43626;53.866;30.298;2023-03-14T15:59:17;17;14.8;10.2
57798;PMS7003;43626;53.866;30.298;2023-03-14T16:03:57;17.4;15.4;10.6
57798;PMS7003;43626;53.866;30.298;2023-03-14T16:08:49;19.6;16;11
57798;PMS7003;43626;53.866;30.298;2023-03-14T16:14:17;19.8;16.8;11
57798;PMS7003;43626;53.866;30.298;2023-03-14T16:18:43;23.4;20;12.2
57798;PMS7003;43626;53.866;30.298;2023-03-14T16:23:55;19.6;17.2;11.4
57798;PMS7003;43626;53.866;30.298;2023-03-14T16:28:43;16.2;14.8;9.8
57798;PMS7003;43626;53.866;30.298;2023-03-14T16:34:00;19;16.6;10.4
57798;PMS7003;43626;53.866;30.298;2023-03-14T16:39:11;21.5;18;11.5
57798;PMS7003;43626;53.866;30.298;2023-03-14T16:43:33;19;16.6;11
57798;PMS7003;43626;53.866;30.298;2023-03-14T16:49:19;16.6;13.6;9.2
57798;PMS7003;43626;53.866;30.298;2023-03-14T16:54:03;15.8;14.4;9.4
57798;PMS7003;43626;53.866;30.298;2023-03-14T16:58:43;15.6;13;8.8
57798;PMS7003;43626;53.866;30.298;2023-03-14T17:03:49;16.4;13.4;9.4
57798;PMS7003;43626;53.866;30.298;2023-03-14T17:09:11;17;15;10
57798;PMS7003;43626;53.866;30.298;2023-03-14T17:13:33;23;17.6;11.2
57798;PMS7003;43626;53.866;30.298;2023-03-14T17:19:05;18.4;15.8;10.4
57798;PMS7003;43626;53.866;30.298;2023-03-14T17:23:55;21.8;19.8;12.2
57798;PMS7003;43626;53.866;30.298;2023-03-14T17:28:33;21.2;17.2;11.2
57798;PMS7003;43626;53.866;30.298;2023-03-14T17:34:19;19.6;17.6;11
57798;PMS7003;43626;53.866;30.298;2023-03-14T17:38:43;21.3;18.3;11.3
57798;PMS7003;43626;53.866;30.298;2023-03-14T17:43:57;24.4;19.8;11.4
57798;PMS7003;43626;53.866;30.298;2023-03-14T17:49:11;21.6;18.2;10.8
57798;PMS7003;43626;53.866;30.298;2023-03-14T17:54:19;24;20.6;12.2
57798;PMS7003;43626;53.866;30.298;2023-03-14T17:58:43;20.6;15.8;10.4
57798;PMS7003;43626;53.866;30.298;2023-03-14T18:04:01;24.4;19;11.6
57798;PMS7003;43626;53.866;30.298;2023-03-14T18:09:09;20.4;17;10.8
57798;PMS7003;43626;53.866;30.298;2023-03-14T18:14:05;19.8;16.2;9.6
57798;PMS7003;43626;53.866;30.298;2023-03-14T18:18:55;18.8;16.4;10.2
57798;PMS7003;43626;53.866;30.298;2023-03-14T18:23:33;21.6;17;10
57798;PMS7003;43626;53.866;30.298;2023-03-14T18:29:17;18.4;16;10.4
57798;PMS7003;43626;53.866;30.298;2023-03-14T18:33:53;15.8;14;9.6
57798;PMS7003;43626;53.866;30.298;2023-03-14T18:39:01;14;12.3;7.8
57798;PMS7003;43626;53.866;30.298;2023-03-14T18:44:17;14.4;12.4;8
57798;PMS7003;43626;53.866;30.298;2023-03-14T18:48:55;14;11.2;7.4
57798;PMS7003;43626;53.866;30.298;2023-03-14T18:53:41;12.2;11.2;8
57798;PMS7003;43626;53.866;30.298;2023-03-14T18:58:47;12.2;10.4;7.2
57798;PMS7003;43626;53.866;30.298;2023-03-14T19:04:17;11.4;9.4;6.8
57798;PMS7003;43626;53.866;30.298;2023-03-14T19:08:41;11;9.6;6.2
57798;PMS7003;43626;53.866;30.298;2023-03-14T19:13:41;14.4;12.8;7.6
57798;PMS7003;43626;53.866;30.298;2023-03-14T19:19:17;18.8;16;9.4
57798;PMS7003;43626;53.866;30.298;2023-03-14T19:23:34;20.2;17.4;9.6
57798;PMS7003;43626;53.866;30.298;2023-03-14T19:28:41;18.2;14.4;7.8
57798;PMS7003;43626;53.866;30.298;2023-03-14T19:33:33;12.2;10.6;7
57798;PMS7003;43626;53.866;30.298;2023-03-14T19:39:17;9;7.5;4.8
57798;PMS7003;43626;53.866;30.298;2023-03-14T19:43:45;14.6;11.6;6.8
57798;PMS7003;43626;53.866;30.298;2023-03-14T19:48:55;13.6;9.8;6.4
57798;PMS7003;43626;53.866;30.298;2023-03-14T19:53:47;13;10.4;6.6
57798;PMS7003;43626;53.866;30.298;2023-03-14T19:59:01;13.8;10.4;6.8
57798;PMS7003;43626;53.866;30.298;2023-03-14T20:03:41;13;10.8;7.6
57798;PMS7003;43626;53.866;30.298;2023-03-14T20:08:47;13.4;11.2;6.8
57798;PMS7003;43626;53.866;30.298;2023-03-14T20:13:51;11;9.2;5.8
57798;PMS7003;43626;53.866;30.298;2023-03-14T20:18:42;11;8.6;5.6
57798;PMS7003;43626;53.866;30.298;2023-03-14T20:24:17;8.4;7.6;5.4
57798;PMS7003;43626;53.866;30.298;2023-03-14T20:29:03;8.2;7.8;5
57798;PMS7003;43626;53.866;30.298;2023-03-14T20:34:03;10;8.2;5
57798;PMS7003;43626;53.866;30.298;2023-03-14T20:39:17;8.8;7;4.8
57798;PMS7003;43626;53.866;30.298;2023-03-14T20:43:55;8.4;7.4;4.8
57798;PMS7003;43626;53.866;30.298;2023-03-14T20:48:33;8;6.8;4.6
57798;PMS7003;43626;53.866;30.298;2023-03-14T20:54:09;8.2;7;4.8
57798;PMS7003;43626;53.866;30.298;2023-03-14T20:59:17;9.2;8.2;5.2
57798;PMS7003;43626;53.866;30.298;2023-03-14T21:04:01;8.4;6.8;4
57798;PMS7003;43626;53.866;30.298;2023-03-14T21:09:01;7.8;6.2;4.2
57798;PMS7003;43626;53.866;30.298;2023-03-14T21:14:09;7.8;6.8;4.6
57798;PMS7003;43626;53.866;30.298;2023-03-14T21:19:03;7.2;6.4;4.4
57798;PMS7003;43626;53.866;30.298;2023-03-14T21:23:51;6.4;6;4
57798;PMS7003;43626;53.866;30.298;2023-03-14T21:29:15;6.4;6.2;4.2
57798;PMS7003;43626;53.866;30.298;2023-03-14T21:33:53;7.2;6.2;3.8
57798;PMS7003;43626;53.866;30.298;2023-03-14T21:39:17;8.2;6.2;4.2
57798;PMS7003;43626;53.866;30.298;2023-03-14T21:43:41;7.3;6;4
57798;PMS7003;43626;53.866;30.298;2023-03-14T21:49:17;7;6.2;4
57798;PMS7003;43626;53.866;30.298;2023-03-14T21:53:55;6;5.4;3.6
57798;PMS7003;43626;53.866;30.298;2023-03-14T21:58:47;8;5.6;3.8
57798;PMS7003;43626;53.866;30.298;2023-03-14T22:03:41;8.2;5.8;3.6
57798;PMS7003;43626;53.866;30.298;2023-03-14T22:09:17;5.8;4.8;2.8
57798;PMS7003;43626;53.866;30.298;2023-03-14T22:13:41;5;4.4;2.8
57798;PMS7003;43626;53.866;30.298;2023-03-14T22:18:53;5.6;4.4;3
57798;PMS7003;43626;53.866;30.298;2023-03-14T22:24:17;6;5.4;3.4
57798;PMS7003;43626;53.866;30.298;2023-03-14T22:28:41;5.4;4.4;2.8
57798;PMS7003;43626;53.866;30.298;2023-03-14T22:33:49;5.6;4.8;3.2
57798;PMS7003;43626;53.866;30.298;2023-03-14T22:38:33;5.2;4.2;2.6
57798;PMS7003;43626;53.866;30.298;2023-03-14T22:44:17;5.8;4.5;3
57798;PMS7003;43626;53.866;30.298;2023-03-14T22:49:17;5.4;4.6;2.8
57798;PMS7003;43626;53.866;30.298;2023-03-14T22:53:55;5.2;4.8;2.6
57798;PMS7003;43626;53.866;30.298;2023-03-14T22:58:47;6.2;4.4;3.4
57798;PMS7003;43626;53.866;30.298;2023-03-14T23:03:59;5.4;4.4;2.4
57798;PMS7003;43626;53.866;30.298;2023-03-14T23:08:33;4.6;4;2.6
57798;PMS7003;43626;53.866;30.298;2023-03-14T23:13:47;5.6;4.2;3
57798;PMS7003;43626;53.866;30.298;2023-03-14T23:18:57;5.6;4.4;2.8
57798;PMS7003;43626;53.866;30.298;2023-03-14T23:23:53;5.6;4.4;2.6
57798;PMS7003;43626;53.866;30.298;2023-03-14T23:29:17;4.6;3.8;2.2
57798;PMS7003;43626;53.866;30.298;2023-03-14T23:34:03;5.2;4.6;2.8
57798;PMS7003;43626;53.866;30.298;2023-03-14T23:38:47;4.4;4.2;2.8
57798;PMS7003;43626;53.866;30.298;2023-03-14T23:44:17;6.3;4.8;3
57798;PMS7003;43626;53.866;30.298;2023-03-14T23:48:55;4.8;4;2.2
57798;PMS7003;43626;53.866;30.298;2023-03-14T23:53:41;5.4;4.2;2.6
57798;PMS7003;43626;53.866;30.298;2023-03-14T23:59:01;5.4;4.8;3.2
